sensor_id;sensor_type;location;lat;lon;timestamp;P1;durP1;ratioP1;P2;durP2;ratioP2
85223;SDS011;75619;51.316;4.824;2024-01-16T00:01:20;6.88;;;2.28;;
85223;SDS011;75619;51.316;4.824;2024-01-16T00:03:45;6.18;;;2.10;;
85223;SDS011;75619;51.316;4.824;2024-01-16T00:06:11;10.40;;;2.10;;
85223;SDS011;75619;51.316;4.824;2024-01-16T00:08:37;4.28;;;1.38;;
85223;SDS011;75619;51.316;4.824;2024-01-16T00:11:05;7.53;;;3.50;;
85223;SDS011;75619;51.316;4.824;2024-01-16T00:13:32;8.07;;;1.95;;
85223;SDS011;75619;51.316;4.824;2024-01-16T00:15:58;3.35;;;1.58;;
85223;SDS011;75619;51.316;4.824;2024-01-16T00:18:23;7.65;;;1.95;;
85223;SDS011;75619;51.316;4.824;2024-01-16T00:20:49;2.33;;;1.20;;
85223;SDS011;75619;51.316;4.824;2024-01-16T00:23:15;3.20;;;1.50;;
85223;SDS011;75619;51.316;4.824;2024-01-16T00:25:40;14.82;;;4.65;;
85223;SDS011;75619;51.316;4.824;2024-01-16T00:28:06;3.03;;;1.60;;
85223;SDS011;75619;51.316;4.824;2024-01-16T00:30:32;7.28;;;1.60;;
85223;SDS011;75619;51.316;4.824;2024-01-16T00:32:58;4.38;;;2.50;;
85223;SDS011;75619;51.316;4.824;2024-01-16T00:35:24;4.55;;;2.53;;
85223;SDS011;75619;51.316;4.824;2024-01-16T00:37:50;5.07;;;2.42;;
85223;SDS011;75619;51.316;4.824;2024-01-16T00:40:16;4.88;;;1.77;;
85223;SDS011;75619;51.316;4.824;2024-01-16T00:42:41;4.55;;;1.38;;
85223;SDS011;75619;51.316;4.824;2024-01-16T00:45:07;4.60;;;1.23;;
85223;SDS011;75619;51.316;4.824;2024-01-16T00:47:33;3.72;;;1.20;;
85223;SDS011;75619;51.316;4.824;2024-01-16T00:49:58;6.65;;;1.13;;
85223;SDS011;75619;51.316;4.824;2024-01-16T00:52:26;7.05;;;1.50;;
85223;SDS011;75619;51.316;4.824;2024-01-16T00:54:52;6.60;;;1.95;;
85223;SDS011;75619;51.316;4.824;2024-01-16T00:57:17;4.53;;;1.77;;
85223;SDS011;75619;51.316;4.824;2024-01-16T00:59:45;4.05;;;1.98;;
85223;SDS011;75619;51.316;4.824;2024-01-16T01:02:11;9.50;;;2.15;;
85223;SDS011;75619;51.316;4.824;2024-01-16T01:04:37;5.30;;;2.05;;
85223;SDS011;75619;51.316;4.824;2024-01-16T01:07:02;9.43;;;2.33;;
85223;SDS011;75619;51.316;4.824;2024-01-16T01:09:29;7.93;;;2.65;;
85223;SDS011;75619;51.316;4.824;2024-01-16T01:11:54;8.77;;;3.10;;
85223;SDS011;75619;51.316;4.824;2024-01-16T01:14:20;8.82;;;2.45;;
85223;SDS011;75619;51.316;4.824;2024-01-16T01:16:45;12.45;;;2.65;;
85223;SDS011;75619;51.316;4.824;2024-01-16T01:19:11;5.13;;;2.47;;
85223;SDS011;75619;51.316;4.824;2024-01-16T01:21:37;10.25;;;2.17;;
85223;SDS011;75619;51.316;4.824;2024-01-16T01:24:03;6.45;;;2.67;;
85223;SDS011;75619;51.316;4.824;2024-01-16T01:26:29;5.85;;;3.15;;
85223;SDS011;75619;51.316;4.824;2024-01-16T01:28:54;6.53;;;1.77;;
85223;SDS011;75619;51.316;4.824;2024-01-16T01:31:20;6.07;;;2.30;;
85223;SDS011;75619;51.316;4.824;2024-01-16T01:33:45;6.60;;;2.33;;
85223;SDS011;75619;51.316;4.824;2024-01-16T01:36:12;5.05;;;1.90;;
85223;SDS011;75619;51.316;4.824;2024-01-16T01:38:38;9.70;;;1.80;;
85223;SDS011;75619;51.316;4.824;2024-01-16T01:41:03;5.70;;;2.35;;
85223;SDS011;75619;51.316;4.824;2024-01-16T01:43:32;8.38;;;2.85;;
85223;SDS011;75619;51.316;4.824;2024-01-16T01:46:11;6.85;;;2.60;;
85223;SDS011;75619;51.316;4.824;2024-01-16T01:48:40;8.45;;;2.15;;
85223;SDS011;75619;51.316;4.824;2024-01-16T01:51:07;6.40;;;2.25;;
85223;SDS011;75619;51.316;4.824;2024-01-16T01:53:34;7.03;;;2.90;;
85223;SDS011;75619;51.316;4.824;2024-01-16T01:56:04;4.78;;;2.70;;
85223;SDS011;75619;51.316;4.824;2024-01-16T01:58:33;8.10;;;3.22;;
85223;SDS011;75619;51.316;4.824;2024-01-16T02:01:02;7.93;;;2.97;;
85223;SDS011;75619;51.316;4.824;2024-01-16T02:03:32;6.55;;;3.42;;
85223;SDS011;75619;51.316;4.824;2024-01-16T02:06:10;13.77;;;4.15;;
85223;SDS011;75619;51.316;4.824;2024-01-16T02:08:41;13.15;;;3.72;;
85223;SDS011;75619;51.316;4.824;2024-01-16T02:11:07;10.00;;;3.85;;
85223;SDS011;75619;51.316;4.824;2024-01-16T02:13:34;12.95;;;3.42;;
85223;SDS011;75619;51.316;4.824;2024-01-16T02:16:00;11.35;;;4.13;;
85223;SDS011;75619;51.316;4.824;2024-01-16T02:18:26;10.65;;;3.88;;
85223;SDS011;75619;51.316;4.824;2024-01-16T02:20:52;9.68;;;3.85;;
85223;SDS011;75619;51.316;4.824;2024-01-16T02:23:27;14.00;;;3.72;;
85223;SDS011;75619;51.316;4.824;2024-01-16T02:25:53;8.13;;;3.72;;
85223;SDS011;75619;51.316;4.824;2024-01-16T02:28:19;14.70;;;4.18;;
85223;SDS011;75619;51.316;4.824;2024-01-16T02:30:45;12.60;;;4.95;;
85223;SDS011;75619;51.316;4.824;2024-01-16T02:33:11;9.85;;;4.95;;
85223;SDS011;75619;51.316;4.824;2024-01-16T02:35:37;25.45;;;7.13;;
85223;SDS011;75619;51.316;4.824;2024-01-16T02:38:03;12.38;;;5.30;;
85223;SDS011;75619;51.316;4.824;2024-01-16T02:40:29;15.65;;;5.55;;
85223;SDS011;75619;51.316;4.824;2024-01-16T02:42:54;14.27;;;4.75;;
85223;SDS011;75619;51.316;4.824;2024-01-16T02:45:20;14.95;;;4.88;;
85223;SDS011;75619;51.316;4.824;2024-01-16T02:47:45;13.23;;;5.93;;
85223;SDS011;75619;51.316;4.824;2024-01-16T02:50:11;12.20;;;6.07;;
85223;SDS011;75619;51.316;4.824;2024-01-16T02:52:37;9.40;;;4.30;;
85223;SDS011;75619;51.316;4.824;2024-01-16T02:55:02;13.43;;;4.45;;
85223;SDS011;75619;51.316;4.824;2024-01-16T02:57:30;12.55;;;4.25;;
85223;SDS011;75619;51.316;4.824;2024-01-16T02:59:55;31.20;;;4.45;;
85223;SDS011;75619;51.316;4.824;2024-01-16T03:02:21;13.65;;;4.10;;
85223;SDS011;75619;51.316;4.824;2024-01-16T03:04:48;12.88;;;3.75;;
85223;SDS011;75619;51.316;4.824;2024-01-16T03:07:15;10.30;;;2.92;;
85223;SDS011;75619;51.316;4.824;2024-01-16T03:09:40;19.42;;;4.68;;
85223;SDS011;75619;51.316;4.824;2024-01-16T03:12:06;7.95;;;3.15;;
85223;SDS011;75619;51.316;4.824;2024-01-16T03:14:32;10.48;;;3.80;;
85223;SDS011;75619;51.316;4.824;2024-01-16T03:17:02;10.80;;;3.30;;
85223;SDS011;75619;51.316;4.824;2024-01-16T03:19:28;8.73;;;3.78;;
85223;SDS011;75619;51.316;4.824;2024-01-16T03:21:54;9.60;;;3.55;;
85223;SDS011;75619;51.316;4.824;2024-01-16T03:24:20;11.88;;;3.47;;
85223;SDS011;75619;51.316;4.824;2024-01-16T03:26:45;9.63;;;3.05;;
85223;SDS011;75619;51.316;4.824;2024-01-16T03:29:11;6.78;;;3.58;;
85223;SDS011;75619;51.316;4.824;2024-01-16T03:31:37;23.48;;;4.13;;
85223;SDS011;75619;51.316;4.824;2024-01-16T03:34:02;13.20;;;3.78;;
85223;SDS011;75619;51.316;4.824;2024-01-16T03:36:28;11.98;;;4.03;;
85223;SDS011;75619;51.316;4.824;2024-01-16T03:38:53;7.60;;;4.72;;
85223;SDS011;75619;51.316;4.824;2024-01-16T03:41:19;13.18;;;2.33;;
85223;SDS011;75619;51.316;4.824;2024-01-16T03:43:45;9.45;;;3.53;;
85223;SDS011;75619;51.316;4.824;2024-01-16T03:46:10;7.10;;;3.67;;
85223;SDS011;75619;51.316;4.824;2024-01-16T03:48:36;13.77;;;3.90;;
85223;SDS011;75619;51.316;4.824;2024-01-16T03:51:02;7.80;;;3.80;;
85223;SDS011;75619;51.316;4.824;2024-01-16T03:53:28;15.32;;;4.00;;
85223;SDS011;75619;51.316;4.824;2024-01-16T03:55:53;10.23;;;3.83;;
85223;SDS011;75619;51.316;4.824;2024-01-16T03:58:19;11.27;;;4.75;;
85223;SDS011;75619;51.316;4.824;2024-01-16T04:00:45;15.40;;;4.35;;
85223;SDS011;75619;51.316;4.824;2024-01-16T04:03:10;19.42;;;3.85;;
85223;SDS011;75619;51.316;4.824;2024-01-16T04:05:36;7.25;;;3.00;;
85223;SDS011;75619;51.316;4.824;2024-01-16T04:08:02;14.27;;;4.00;;
85223;SDS011;75619;51.316;4.824;2024-01-16T04:10:28;4.47;;;2.63;;
85223;SDS011;75619;51.316;4.824;2024-01-16T04:12:53;7.75;;;3.00;;
85223;SDS011;75619;51.316;4.824;2024-01-16T04:15:19;13.70;;;3.35;;
85223;SDS011;75619;51.316;4.824;2024-01-16T04:17:44;13.77;;;3.60;;
85223;SDS011;75619;51.316;4.824;2024-01-16T04:20:10;8.70;;;3.78;;
85223;SDS011;75619;51.316;4.824;2024-01-16T04:22:36;16.63;;;3.53;;
85223;SDS011;75619;51.316;4.824;2024-01-16T04:25:02;15.70;;;3.95;;
85223;SDS011;75619;51.316;4.824;2024-01-16T04:27:30;16.55;;;3.75;;
85223;SDS011;75619;51.316;4.824;2024-01-16T04:29:58;7.45;;;3.10;;
85223;SDS011;75619;51.316;4.824;2024-01-16T04:32:24;6.57;;;3.50;;
85223;SDS011;75619;51.316;4.824;2024-01-16T04:34:50;8.10;;;2.60;;
85223;SDS011;75619;51.316;4.824;2024-01-16T04:37:15;10.80;;;3.70;;
85223;SDS011;75619;51.316;4.824;2024-01-16T04:39:41;8.13;;;3.83;;
85223;SDS011;75619;51.316;4.824;2024-01-16T04:42:06;6.78;;;2.85;;
85223;SDS011;75619;51.316;4.824;2024-01-16T04:44:32;5.68;;;2.45;;
85223;SDS011;75619;51.316;4.824;2024-01-16T04:46:57;9.30;;;3.78;;
85223;SDS011;75619;51.316;4.824;2024-01-16T04:49:23;10.10;;;3.13;;
85223;SDS011;75619;51.316;4.824;2024-01-16T04:51:49;13.25;;;4.53;;
85223;SDS011;75619;51.316;4.824;2024-01-16T04:54:14;12.63;;;3.10;;
85223;SDS011;75619;51.316;4.824;2024-01-16T04:56:40;5.30;;;2.95;;
85223;SDS011;75619;51.316;4.824;2024-01-16T04:59:06;15.70;;;3.90;;
85223;SDS011;75619;51.316;4.824;2024-01-16T05:01:31;6.18;;;2.30;;
85223;SDS011;75619;51.316;4.824;2024-01-16T05:03:59;7.20;;;2.90;;
85223;SDS011;75619;51.316;4.824;2024-01-16T05:06:24;10.90;;;3.40;;
85223;SDS011;75619;51.316;4.824;2024-01-16T05:08:50;7.90;;;2.80;;
85223;SDS011;75619;51.316;4.824;2024-01-16T05:11:15;8.02;;;2.95;;
85223;SDS011;75619;51.316;4.824;2024-01-16T05:13:41;5.68;;;2.78;;
85223;SDS011;75619;51.316;4.824;2024-01-16T05:16:06;5.40;;;2.40;;
85223;SDS011;75619;51.316;4.824;2024-01-16T05:18:33;5.90;;;3.05;;
85223;SDS011;75619;51.316;4.824;2024-01-16T05:20:58;6.10;;;3.05;;
85223;SDS011;75619;51.316;4.824;2024-01-16T05:23:24;8.45;;;3.08;;
85223;SDS011;75619;51.316;4.824;2024-01-16T05:25:50;11.38;;;3.05;;
85223;SDS011;75619;51.316;4.824;2024-01-16T05:28:16;7.05;;;2.83;;
85223;SDS011;75619;51.316;4.824;2024-01-16T05:30:42;7.82;;;3.10;;
85223;SDS011;75619;51.316;4.824;2024-01-16T05:33:08;9.40;;;3.13;;
85223;SDS011;75619;51.316;4.824;2024-01-16T05:35:33;7.93;;;3.05;;
85223;SDS011;75619;51.316;4.824;2024-01-16T05:37:59;8.32;;;2.80;;
85223;SDS011;75619;51.316;4.824;2024-01-16T05:40:25;5.50;;;2.88;;
85223;SDS011;75619;51.316;4.824;2024-01-16T05:42:51;6.88;;;3.60;;
85223;SDS011;75619;51.316;4.824;2024-01-16T05:45:17;7.55;;;3.17;;
85223;SDS011;75619;51.316;4.824;2024-01-16T05:47:43;7.47;;;2.97;;
85223;SDS011;75619;51.316;4.824;2024-01-16T05:50:09;7.60;;;3.13;;
85223;SDS011;75619;51.316;4.824;2024-01-16T05:52:35;8.10;;;3.28;;
85223;SDS011;75619;51.316;4.824;2024-01-16T05:55:01;6.57;;;2.92;;
85223;SDS011;75619;51.316;4.824;2024-01-16T05:57:28;13.07;;;3.15;;
85223;SDS011;75619;51.316;4.824;2024-01-16T05:59:54;7.78;;;2.72;;
85223;SDS011;75619;51.316;4.824;2024-01-16T06:02:19;5.70;;;3.15;;
85223;SDS011;75619;51.316;4.824;2024-01-16T06:04:45;6.15;;;2.95;;
85223;SDS011;75619;51.316;4.824;2024-01-16T06:07:11;14.65;;;4.65;;
85223;SDS011;75619;51.316;4.824;2024-01-16T06:09:40;12.93;;;3.38;;
85223;SDS011;75619;51.316;4.824;2024-01-16T06:12:06;5.75;;;3.00;;
85223;SDS011;75619;51.316;4.824;2024-01-16T06:14:32;8.82;;;3.55;;
85223;SDS011;75619;51.316;4.824;2024-01-16T06:16:58;8.52;;;3.33;;
85223;SDS011;75619;51.316;4.824;2024-01-16T06:19:24;8.02;;;3.08;;
85223;SDS011;75619;51.316;4.824;2024-01-16T06:21:49;10.52;;;3.33;;
85223;SDS011;75619;51.316;4.824;2024-01-16T06:24:15;5.40;;;2.60;;
85223;SDS011;75619;51.316;4.824;2024-01-16T06:26:40;8.35;;;2.55;;
85223;SDS011;75619;51.316;4.824;2024-01-16T06:29:07;8.10;;;3.10;;
85223;SDS011;75619;51.316;4.824;2024-01-16T06:31:33;6.05;;;2.53;;
85223;SDS011;75619;51.316;4.824;2024-01-16T06:33:59;6.20;;;2.15;;
85223;SDS011;75619;51.316;4.824;2024-01-16T06:36:24;6.13;;;2.38;;
85223;SDS011;75619;51.316;4.824;2024-01-16T06:38:50;6.70;;;3.15;;
85223;SDS011;75619;51.316;4.824;2024-01-16T06:41:15;7.70;;;2.40;;
85223;SDS011;75619;51.316;4.824;2024-01-16T06:43:41;4.85;;;3.22;;
85223;SDS011;75619;51.316;4.824;2024-01-16T06:46:07;7.63;;;1.67;;
85223;SDS011;75619;51.316;4.824;2024-01-16T06:48:34;5.20;;;2.78;;
85223;SDS011;75619;51.316;4.824;2024-01-16T06:51:02;10.70;;;3.20;;
85223;SDS011;75619;51.316;4.824;2024-01-16T06:53:28;7.93;;;3.33;;
85223;SDS011;75619;51.316;4.824;2024-01-16T06:55:53;7.03;;;2.67;;
85223;SDS011;75619;51.316;4.824;2024-01-16T06:58:19;11.05;;;2.88;;
85223;SDS011;75619;51.316;4.824;2024-01-16T07:00:46;7.35;;;3.30;;
85223;SDS011;75619;51.316;4.824;2024-01-16T07:03:12;6.43;;;2.70;;
85223;SDS011;75619;51.316;4.824;2024-01-16T07:05:38;5.85;;;2.80;;
85223;SDS011;75619;51.316;4.824;2024-01-16T07:08:03;9.77;;;2.45;;
85223;SDS011;75619;51.316;4.824;2024-01-16T07:10:29;7.35;;;3.40;;
85223;SDS011;75619;51.316;4.824;2024-01-16T07:12:54;9.77;;;3.40;;
85223;SDS011;75619;51.316;4.824;2024-01-16T07:15:21;5.32;;;2.40;;
85223;SDS011;75619;51.316;4.824;2024-01-16T07:17:47;13.45;;;3.30;;
85223;SDS011;75619;51.316;4.824;2024-01-16T07:20:12;9.38;;;3.33;;
85223;SDS011;75619;51.316;4.824;2024-01-16T07:22:38;8.63;;;3.90;;
85223;SDS011;75619;51.316;4.824;2024-01-16T07:25:07;9.00;;;3.33;;
85223;SDS011;75619;51.316;4.824;2024-01-16T07:27:33;6.07;;;2.70;;
85223;SDS011;75619;51.316;4.824;2024-01-16T07:29:59;8.98;;;2.85;;
85223;SDS011;75619;51.316;4.824;2024-01-16T07:32:25;7.78;;;3.60;;
85223;SDS011;75619;51.316;4.824;2024-01-16T07:34:51;7.93;;;3.25;;
85223;SDS011;75619;51.316;4.824;2024-01-16T07:37:18;10.65;;;3.35;;
85223;SDS011;75619;51.316;4.824;2024-01-16T07:39:44;5.97;;;2.70;;
85223;SDS011;75619;51.316;4.824;2024-01-16T07:42:10;8.57;;;3.50;;
85223;SDS011;75619;51.316;4.824;2024-01-16T07:44:36;21.77;;;3.53;;
85223;SDS011;75619;51.316;4.824;2024-01-16T07:47:02;9.05;;;3.58;;
85223;SDS011;75619;51.316;4.824;2024-01-16T07:49:28;9.95;;;3.47;;
85223;SDS011;75619;51.316;4.824;2024-01-16T07:51:54;7.25;;;3.63;;
85223;SDS011;75619;51.316;4.824;2024-01-16T07:54:19;8.45;;;3.17;;
85223;SDS011;75619;51.316;4.824;2024-01-16T07:56:45;7.88;;;3.85;;
85223;SDS011;75619;51.316;4.824;2024-01-16T07:59:10;6.88;;;3.30;;
85223;SDS011;75619;51.316;4.824;2024-01-16T08:01:36;9.07;;;2.47;;
85223;SDS011;75619;51.316;4.824;2024-01-16T08:04:03;8.80;;;2.90;;
85223;SDS011;75619;51.316;4.824;2024-01-16T08:06:29;11.23;;;3.13;;
85223;SDS011;75619;51.316;4.824;2024-01-16T08:08:55;8.75;;;3.25;;
85223;SDS011;75619;51.316;4.824;2024-01-16T08:11:21;8.93;;;3.08;;
85223;SDS011;75619;51.316;4.824;2024-01-16T08:13:47;16.08;;;2.95;;
85223;SDS011;75619;51.316;4.824;2024-01-16T08:16:12;4.68;;;2.67;;
85223;SDS011;75619;51.316;4.824;2024-01-16T08:18:38;7.80;;;3.00;;
85223;SDS011;75619;51.316;4.824;2024-01-16T08:21:03;7.60;;;3.05;;
85223;SDS011;75619;51.316;4.824;2024-01-16T08:23:29;10.27;;;3.38;;
85223;SDS011;75619;51.316;4.824;2024-01-16T08:25:54;7.82;;;3.17;;
85223;SDS011;75619;51.316;4.824;2024-01-16T08:28:20;7.28;;;3.42;;
85223;SDS011;75619;51.316;4.824;2024-01-16T08:30:46;7.70;;;2.85;;
85223;SDS011;75619;51.316;4.824;2024-01-16T08:33:11;8.48;;;2.85;;
85223;SDS011;75619;51.316;4.824;2024-01-16T08:35:37;7.90;;;4.28;;
85223;SDS011;75619;51.316;4.824;2024-01-16T08:38:03;5.43;;;2.70;;
85223;SDS011;75619;51.316;4.824;2024-01-16T08:40:29;6.82;;;3.00;;
85223;SDS011;75619;51.316;4.824;2024-01-16T08:42:55;5.85;;;2.75;;
85223;SDS011;75619;51.316;4.824;2024-01-16T08:45:21;9.30;;;3.05;;
85223;SDS011;75619;51.316;4.824;2024-01-16T08:47:47;6.53;;;4.90;;
85223;SDS011;75619;51.316;4.824;2024-01-16T08:50:13;15.68;;;5.18;;
85223;SDS011;75619;51.316;4.824;2024-01-16T08:52:39;7.70;;;3.95;;
85223;SDS011;75619;51.316;4.824;2024-01-16T08:55:05;7.85;;;4.28;;
85223;SDS011;75619;51.316;4.824;2024-01-16T08:57:31;14.35;;;3.95;;
85223;SDS011;75619;51.316;4.824;2024-01-16T08:59:57;8.82;;;4.15;;
85223;SDS011;75619;51.316;4.824;2024-01-16T09:02:23;13.18;;;4.50;;
85223;SDS011;75619;51.316;4.824;2024-01-16T09:04:49;5.70;;;3.15;;
85223;SDS011;75619;51.316;4.824;2024-01-16T09:07:18;6.80;;;3.70;;
85223;SDS011;75619;51.316;4.824;2024-01-16T09:09:44;10.98;;;3.63;;
85223;SDS011;75619;51.316;4.824;2024-01-16T09:12:09;8.55;;;4.03;;
85223;SDS011;75619;51.316;4.824;2024-01-16T09:14:35;7.25;;;3.00;;
85223;SDS011;75619;51.316;4.824;2024-01-16T09:17:01;11.98;;;3.83;;
85223;SDS011;75619;51.316;4.824;2024-01-16T09:19:26;9.48;;;3.45;;
85223;SDS011;75619;51.316;4.824;2024-01-16T09:21:52;19.92;;;5.15;;
85223;SDS011;75619;51.316;4.824;2024-01-16T09:24:17;9.77;;;4.68;;
85223;SDS011;75619;51.316;4.824;2024-01-16T09:26:44;6.40;;;3.25;;
85223;SDS011;75619;51.316;4.824;2024-01-16T09:29:09;5.45;;;3.42;;
85223;SDS011;75619;51.316;4.824;2024-01-16T09:31:35;8.25;;;3.30;;
85223;SDS011;75619;51.316;4.824;2024-01-16T09:34:01;10.43;;;5.07;;
85223;SDS011;75619;51.316;4.824;2024-01-16T09:36:29;8.13;;;3.70;;
85223;SDS011;75619;51.316;4.824;2024-01-16T09:38:54;10.52;;;5.68;;
85223;SDS011;75619;51.316;4.824;2024-01-16T09:41:20;9.93;;;4.80;;
85223;SDS011;75619;51.316;4.824;2024-01-16T09:43:46;6.60;;;2.88;;
85223;SDS011;75619;51.316;4.824;2024-01-16T09:46:12;7.90;;;3.55;;
85223;SDS011;75619;51.316;4.824;2024-01-16T09:48:41;11.02;;;2.53;;
85223;SDS011;75619;51.316;4.824;2024-01-16T09:51:10;6.43;;;2.80;;
85223;SDS011;75619;51.316;4.824;2024-01-16T09:53:42;10.23;;;3.40;;
85223;SDS011;75619;51.316;4.824;2024-01-16T09:56:11;12.18;;;3.33;;
85223;SDS011;75619;51.316;4.824;2024-01-16T09:58:40;5.70;;;2.40;;
85223;SDS011;75619;51.316;4.824;2024-01-16T10:01:06;6.53;;;2.95;;
85223;SDS011;75619;51.316;4.824;2024-01-16T10:03:31;7.80;;;3.35;;
85223;SDS011;75619;51.316;4.824;2024-01-16T10:06:01;7.55;;;2.80;;
85223;SDS011;75619;51.316;4.824;2024-01-16T10:10:57;8.45;;;3.28;;
85223;SDS011;75619;51.316;4.824;2024-01-16T10:13:23;7.28;;;3.15;;
85223;SDS011;75619;51.316;4.824;2024-01-16T10:15:49;17.27;;;7.30;;
85223;SDS011;75619;51.316;4.824;2024-01-16T10:18:22;7.38;;;2.80;;
85223;SDS011;75619;51.316;4.824;2024-01-16T10:20:51;8.75;;;3.28;;
85223;SDS011;75619;51.316;4.824;2024-01-16T10:28:36;6.13;;;2.75;;
85223;SDS011;75619;51.316;4.824;2024-01-16T10:31:10;7.93;;;2.60;;
85223;SDS011;75619;51.316;4.824;2024-01-16T10:33:37;8.10;;;3.28;;
85223;SDS011;75619;51.316;4.824;2024-01-16T10:36:11;11.02;;;3.50;;
85223;SDS011;75619;51.316;4.824;2024-01-16T10:38:39;6.07;;;2.40;;
85223;SDS011;75619;51.316;4.824;2024-01-16T10:41:09;8.70;;;3.47;;
85223;SDS011;75619;51.316;4.824;2024-01-16T10:43:40;6.30;;;2.85;;
85223;SDS011;75619;51.316;4.824;2024-01-16T10:46:16;8.30;;;3.30;;
85223;SDS011;75619;51.316;4.824;2024-01-16T10:48:58;9.70;;;3.53;;
85223;SDS011;75619;51.316;4.824;2024-01-16T10:51:27;6.30;;;2.85;;
85223;SDS011;75619;51.316;4.824;2024-01-16T10:54:04;7.90;;;2.67;;
85223;SDS011;75619;51.316;4.824;2024-01-16T10:56:36;8.60;;;3.05;;
85223;SDS011;75619;51.316;4.824;2024-01-16T11:01:59;9.90;;;3.15;;
85223;SDS011;75619;51.316;4.824;2024-01-16T11:04:29;14.40;;;3.92;;
85223;SDS011;75619;51.316;4.824;2024-01-16T11:06:56;10.02;;;3.40;;
85223;SDS011;75619;51.316;4.824;2024-01-16T11:09:22;10.93;;;3.05;;
85223;SDS011;75619;51.316;4.824;2024-01-16T11:11:49;5.93;;;2.97;;
85223;SDS011;75619;51.316;4.824;2024-01-16T11:14:18;7.72;;;2.80;;
85223;SDS011;75619;51.316;4.824;2024-01-16T11:16:47;9.30;;;3.28;;
85223;SDS011;75619;51.316;4.824;2024-01-16T11:19:14;7.85;;;2.60;;
85223;SDS011;75619;51.316;4.824;2024-01-16T11:21:43;5.82;;;2.92;;
85223;SDS011;75619;51.316;4.824;2024-01-16T11:24:09;4.78;;;2.70;;
85223;SDS011;75619;51.316;4.824;2024-01-16T11:26:34;5.90;;;2.63;;
85223;SDS011;75619;51.316;4.824;2024-01-16T11:31:52;5.13;;;2.47;;
85223;SDS011;75619;51.316;4.824;2024-01-16T11:37:29;4.82;;;2.70;;
85223;SDS011;75619;51.316;4.824;2024-01-16T11:42:42;6.75;;;2.40;;
85223;SDS011;75619;51.316;4.824;2024-01-16T11:45:20;6.55;;;2.85;;
85223;SDS011;75619;51.316;4.824;2024-01-16T11:48:09;4.18;;;2.53;;
85223;SDS011;75619;51.316;4.824;2024-01-16T11:50:35;6.57;;;3.00;;
85223;SDS011;75619;51.316;4.824;2024-01-16T11:53:01;5.32;;;2.90;;
85223;SDS011;75619;51.316;4.824;2024-01-16T11:55:28;6.25;;;2.78;;
85223;SDS011;75619;51.316;4.824;2024-01-16T12:00:57;6.25;;;2.70;;
85223;SDS011;75619;51.316;4.824;2024-01-16T12:03:23;7.55;;;2.90;;
85223;SDS011;75619;51.316;4.824;2024-01-16T12:05:58;11.30;;;2.60;;
85223;SDS011;75619;51.316;4.824;2024-01-16T12:08:24;5.43;;;1.88;;
85223;SDS011;75619;51.316;4.824;2024-01-16T12:10:50;4.97;;;2.63;;
85223;SDS011;75619;51.316;4.824;2024-01-16T12:13:16;7.13;;;1.92;;
85223;SDS011;75619;51.316;4.824;2024-01-16T12:15:42;3.90;;;2.15;;
85223;SDS011;75619;51.316;4.824;2024-01-16T12:18:08;9.38;;;2.53;;
85223;SDS011;75619;51.316;4.824;2024-01-16T12:20:35;8.70;;;2.88;;
85223;SDS011;75619;51.316;4.824;2024-01-16T12:23:02;6.03;;;2.72;;
85223;SDS011;75619;51.316;4.824;2024-01-16T12:25:36;4.95;;;2.42;;
85223;SDS011;75619;51.316;4.824;2024-01-16T12:28:06;12.85;;;3.08;;
85223;SDS011;75619;51.316;4.824;2024-01-16T12:30:35;5.07;;;2.58;;
85223;SDS011;75619;51.316;4.824;2024-01-16T12:35:42;7.45;;;2.80;;
85223;SDS011;75619;51.316;4.824;2024-01-16T12:38:12;13.18;;;3.88;;
85223;SDS011;75619;51.316;4.824;2024-01-16T12:40:42;9.10;;;3.28;;
85223;SDS011;75619;51.316;4.824;2024-01-16T12:43:18;8.70;;;3.78;;
85223;SDS011;75619;51.316;4.824;2024-01-16T12:45:44;11.70;;;4.03;;
85223;SDS011;75619;51.316;4.824;2024-01-16T12:48:11;14.43;;;4.35;;
85223;SDS011;75619;51.316;4.824;2024-01-16T12:50:37;11.48;;;3.17;;
85223;SDS011;75619;51.316;4.824;2024-01-16T12:53:09;11.32;;;4.00;;
85223;SDS011;75619;51.316;4.824;2024-01-16T12:55:37;12.70;;;4.05;;
85223;SDS011;75619;51.316;4.824;2024-01-16T12:58:14;14.38;;;4.65;;
85223;SDS011;75619;51.316;4.824;2024-01-16T13:00:43;11.95;;;3.85;;
85223;SDS011;75619;51.316;4.824;2024-01-16T13:03:20;4.95;;;2.70;;
85223;SDS011;75619;51.316;4.824;2024-01-16T13:05:57;10.40;;;2.53;;
85223;SDS011;75619;51.316;4.824;2024-01-16T13:08:24;5.95;;;2.65;;
85223;SDS011;75619;51.316;4.824;2024-01-16T13:11:06;7.63;;;3.08;;
85223;SDS011;75619;51.316;4.824;2024-01-16T13:13:34;5.85;;;2.38;;
85223;SDS011;75619;51.316;4.824;2024-01-16T13:16:00;7.82;;;3.13;;
85223;SDS011;75619;51.316;4.824;2024-01-16T13:18:27;7.72;;;3.42;;
85223;SDS011;75619;51.316;4.824;2024-01-16T13:20:54;5.55;;;2.80;;
85223;SDS011;75619;51.316;4.824;2024-01-16T13:23:21;8.93;;;3.38;;
85223;SDS011;75619;51.316;4.824;2024-01-16T13:25:48;5.95;;;3.15;;
85223;SDS011;75619;51.316;4.824;2024-01-16T13:28:15;8.57;;;3.67;;
85223;SDS011;75619;51.316;4.824;2024-01-16T13:30:45;7.65;;;3.10;;
85223;SDS011;75619;51.316;4.824;2024-01-16T13:33:12;8.52;;;2.78;;
85223;SDS011;75619;51.316;4.824;2024-01-16T13:35:41;9.65;;;3.22;;
85223;SDS011;75619;51.316;4.824;2024-01-16T13:38:08;4.78;;;2.60;;
85223;SDS011;75619;51.316;4.824;2024-01-16T13:40:35;6.32;;;2.58;;
85223;SDS011;75619;51.316;4.824;2024-01-16T13:43:04;16.17;;;6.47;;
85223;SDS011;75619;51.316;4.824;2024-01-16T13:45:31;12.85;;;7.05;;
85223;SDS011;75619;51.316;4.824;2024-01-16T13:47:58;10.27;;;5.05;;
85223;SDS011;75619;51.316;4.824;2024-01-16T13:50:26;8.63;;;3.65;;
85223;SDS011;75619;51.316;4.824;2024-01-16T13:52:52;5.53;;;3.20;;
85223;SDS011;75619;51.316;4.824;2024-01-16T13:55:19;13.27;;;4.78;;
85223;SDS011;75619;51.316;4.824;2024-01-16T13:57:44;11.18;;;4.60;;
85223;SDS011;75619;51.316;4.824;2024-01-16T14:00:11;11.27;;;5.32;;
85223;SDS011;75619;51.316;4.824;2024-01-16T14:02:45;5.22;;;2.85;;
85223;SDS011;75619;51.316;4.824;2024-01-16T14:05:12;7.20;;;3.78;;
85223;SDS011;75619;51.316;4.824;2024-01-16T14:07:44;7.15;;;3.42;;
85223;SDS011;75619;51.316;4.824;2024-01-16T14:10:12;10.77;;;2.83;;
85223;SDS011;75619;51.316;4.824;2024-01-16T14:12:39;9.10;;;3.25;;
85223;SDS011;75619;51.316;4.824;2024-01-16T14:15:07;7.70;;;3.65;;
85223;SDS011;75619;51.316;4.824;2024-01-16T14:17:41;5.88;;;2.90;;
85223;SDS011;75619;51.316;4.824;2024-01-16T14:20:09;9.70;;;3.95;;
85223;SDS011;75619;51.316;4.824;2024-01-16T14:22:36;6.53;;;3.85;;
85223;SDS011;75619;51.316;4.824;2024-01-16T14:25:11;10.65;;;4.10;;
85223;SDS011;75619;51.316;4.824;2024-01-16T14:27:41;6.80;;;2.92;;
85223;SDS011;75619;51.316;4.824;2024-01-16T14:30:09;8.68;;;3.13;;
85223;SDS011;75619;51.316;4.824;2024-01-16T14:32:40;9.63;;;4.10;;
85223;SDS011;75619;51.316;4.824;2024-01-16T14:35:06;8.15;;;4.00;;
85223;SDS011;75619;51.316;4.824;2024-01-16T14:37:34;6.32;;;3.25;;
85223;SDS011;75619;51.316;4.824;2024-01-16T14:40:01;8.02;;;3.65;;
85223;SDS011;75619;51.316;4.824;2024-01-16T14:42:28;7.05;;;2.50;;
85223;SDS011;75619;51.316;4.824;2024-01-16T14:44:54;6.70;;;2.53;;
85223;SDS011;75619;51.316;4.824;2024-01-16T14:47:20;6.80;;;3.10;;
85223;SDS011;75619;51.316;4.824;2024-01-16T14:49:45;11.93;;;4.50;;
85223;SDS011;75619;51.316;4.824;2024-01-16T14:52:11;15.35;;;4.15;;
85223;SDS011;75619;51.316;4.824;2024-01-16T14:54:37;20.50;;;5.85;;
85223;SDS011;75619;51.316;4.824;2024-01-16T14:57:03;28.90;;;8.18;;
85223;SDS011;75619;51.316;4.824;2024-01-16T14:59:31;25.65;;;7.30;;
85223;SDS011;75619;51.316;4.824;2024-01-16T15:01:58;19.42;;;7.15;;
85223;SDS011;75619;51.316;4.824;2024-01-16T15:04:23;18.70;;;5.93;;
85223;SDS011;75619;51.316;4.824;2024-01-16T15:06:49;22.20;;;8.48;;